logo
App data

Fractal: Make Blooms Not War

Push, Combo, and Chain your way through a pulsing technicolor dreamscape all the while expanding your consciousness at 130 BPM.
Store | Hub | SteamDB | Site
Developer: Cipher Prime Studios Publisher: Cipher Prime Studios
Genre: Indie, Casual
Languages: English, French, German, Italian, Japanese, Korean, Portuguese, Russian, Simplified Chinese, Spanish - Spain
Tags: Casual (41), Indie (39), Puzzle (31)
Category: Single-player
Release date: Nov 29, 2011
Price: $6.99
Old userscore: 76% Owners: 100,000 .. 200,000
Followers: 0
Peak concurrent players yesterday: 1
Playtime total: 00:14 (average) 00:14 (median)

Steam Spy is still in beta, so expect major bugs.

Owners data:

Access restricted.

This feature is only available to users with special access rights. Sorry.

If you want to proceed, you need to register or log in first and then back Steam Spy on Patreon. Look for Indie or Pro pledge.

Don't forget to use the same email as on Steam Spy!

If you've recently backed Steam Spy on Patreon, please note, that it might take around 15 minutes for your access rights to sync. In most cases you'll need to re-login on Steam Spy too.

Audience in 2 weeks:

Access restricted.

This feature is only available to users with special access rights. Sorry.

If you want to proceed, you need to register or log in first and then back Steam Spy on Patreon. Look for Indie or Pro pledge.

Don't forget to use the same email as on Steam Spy!

If you've recently backed Steam Spy on Patreon, please note, that it might take around 15 minutes for your access rights to sync. In most cases you'll need to re-login on Steam Spy too.

Peak daily concurrent players:

CCU data courtesy of SteamDB. Used with permission.

Hourly concurrent players:

Daily Twitch stats:

Hourly Twitch stats:

Followers over time

Access restricted.

This feature is only available to users with special access rights. Sorry.

If you want to proceed, you need to register or log in first and then back Steam Spy on Patreon. Look for Indie or Pro pledge.

Don't forget to use the same email as on Steam Spy!

If you've recently backed Steam Spy on Patreon, please note, that it might take around 15 minutes for your access rights to sync. In most cases you'll need to re-login on Steam Spy too.

Views for top 50 videos on YouTube for this game:

Games similar to this one:

# Game Release date
Price
Score rank
(Userscore / Metascore)
Owners
Players
Playtime (Median)
1 Fine Sweeper May 25, 2015 $2.99N/A (N/A)20,000 .. 50,0000%00:00 (00:00)
2 Brave Furries May 18, 2014 FreeN/A (N/A)20,000 .. 50,0000%00:00 (00:00)
3 President for a Day - Floodings Aug 12, 2015 $0.99N/A (N/A)20,000 .. 50,0000%00:00 (00:00)
4 12 Labours of Hercules II: The Cretan Bull Jun 2, 2015 $2.99N/A (N/A)200,000 .. 500,0000%00:00 (00:00)
5 Awe Oct 9, 2015 $3.99N/A (N/A)0 .. 20,0000%00:00 (00:00)
6 12 Labours of Hercules III: Girl Power Aug 7, 2015 $2.99N/A (N/A)100,000 .. 200,0000%00:00 (00:00)
7 Idol Magical Girl Chiru Chiru Michiru Part 1 Jul 29, 2015 $19.99N/A (N/A)50,000 .. 100,0000%00:00 (00:00)
8 Sparkle 3 Genesis Apr 24, 2015 $4.99N/A (N/A)200,000 .. 500,0000%00:00 (00:00)
9 Mountain Crime: Requital Dec 24, 2011 $2.99N/A (N/A)20,000 .. 50,0000%00:00 (00:00)
10 Goosebumps: The Game Oct 13, 2015 $9.99N/A (N/A)20,000 .. 50,0000%00:00 (00:00)
11 Dracula's Legacy Oct 22, 2015 $2.99N/A (N/A)50,000 .. 100,0000%00:00 (00:00)
12 Portal of Evil: Stolen Runes Collector's Edition May 26, 2015 $4.99N/A (N/A)100,000 .. 200,0000%00:00 (00:00)
13 Time Mysteries: Inheritance - Remastered Feb 26, 2015 $9.99N/A (N/A)50,000 .. 100,0000%00:00 (00:00)
14 Mind Snares: Alice's Journey Apr 23, 2015 $9.99N/A (N/A)50,000 .. 100,0000%00:00 (00:00)
15 Intergalactic Bubbles May 29, 2015 $1.99N/A (N/A)200,000 .. 500,0000%00:00 (00:00)
16 Tea Party Simulator 2015 Apr 23, 2015 $9.99N/A (N/A)100,000 .. 200,0000%00:00 (00:00)
17 Dreamscapes: Nightmare's Heir - Premium Edition Mar 11, 2015 $6.99N/A (N/A)20,000 .. 50,0000%00:00 (00:00)
18 Fantasy Kingdom Simulator Jun 13, 2016 $4.99N/A (N/A)50,000 .. 100,0000%00:00 (00:00)
19 Funfair Aug 20, 2016 FreeN/A (N/A)0 .. 20,0000%00:00 (00:00)
20 Tomato Jones Jul 11, 2016 $1.99N/A (N/A)0 .. 20,0000%00:00 (00:00)
21 The Cooking Game Oct 21, 2016 FreeN/A (N/A)100,000 .. 200,0000%00:00 (00:00)
22 The Secret Order 4: Beyond Time Sep 22, 2016 $9.99N/A (N/A)20,000 .. 50,0000%00:00 (00:00)
23 Intelligent Design: An Evolutionary Sandbox May 12, 2017 $1.39N/A (N/A)0 .. 20,0000%00:00 (00:00)
24 Robot Squad Simulator 2017 Oct 20, 2016 $1.49N/A (N/A)0 .. 20,0000%00:00 (00:00)
25 Eventide: Slavic Fable Jan 28, 2016 $9.99N/A (N/A)50,000 .. 100,0000%00:00 (00:00)
26 Fairy Tale Mysteries: The Puppet Thief Jan 7, 2016 $9.99N/A (N/A)50,000 .. 100,0000%00:00 (00:00)
27 The Guild II Oct 12, 2006 $9.99N/A (N/A/61%)500,000 .. 1,000,0000%00:00 (00:00)
28 Snuggle Truck Feb 3, 2012 $4.99N/A (N/A)20,000 .. 50,0000%00:00 (00:00)
29 Lucid Jul 19, 2011 $4.99N/A (N/A)50,000 .. 100,0000%00:00 (00:00)
30 Containment: The Zombie Puzzler Mar 2, 2012 $4.99N/A (N/A)50,000 .. 100,0000%00:00 (00:00)
31 Zen Bound 2 Nov 16, 2010 $4.99N/A (N/A)100,000 .. 200,0000%00:00 (00:00)
32 Pickers Feb 22, 2012 $9.99N/A (N/A)50,000 .. 100,0000%00:00 (00:00)
33 Flight Control HD Nov 18, 2010 $4.99N/A (N/A)20,000 .. 50,0000%00:00 (00:00)
34 3SwitcheD Mar 29, 2012 $9.99N/A (N/A)200,000 .. 500,0000%00:00 (00:00)
35 Chime Sep 6, 2010 $4.99N/A (N/A)50,000 .. 100,0000%00:00 (00:00)
36 7 Wonders: Ancient Alien Makeover Oct 24, 2012 $9.99N/A (N/A)50,000 .. 100,0000%00:00 (00:00)
37 ARMA: Gold Edition Jul 13, 2011 $9.99N/A (N/A)500,000 .. 1,000,0000%00:00 (00:00)
38 Spacebase DF-9 Oct 27, 2014 $9.99N/A (N/A/49%)200,000 .. 500,0000%00:00 (00:00)
39 Worms Blast Mar 30, 2002 $7.99N/A (N/A/73%)100,000 .. 200,0000%00:00 (00:00)
40 X: Tension Oct 8, 2010 $4.99N/A (N/A)200,000 .. 500,0000%00:00 (00:00)
41 Iron Front: Digital War Edition May 25, 2012 $14.99N/A (N/A/55%)500,000 .. 1,000,0000%00:00 (00:00)
42 Puzzle Kingdoms Apr 27, 2009 $14.99N/A (N/A)50,000 .. 100,0000%00:00 (00:00)
43 Critical Mass Jun 20, 2011 $1.99N/A (N/A/81%)100,000 .. 200,0000%00:00 (00:00)
44 Cosmic DJ Oct 30, 2014 $2.99N/A (N/A)20,000 .. 50,0000%00:00 (00:00)
45 YOU DON'T KNOW JACK Vol. 3 Oct 31, 1997 $2.99N/A (N/A)0 .. 20,0000%00:00 (00:00)
46 FLASHOUT 2 Jun 6, 2014 $4.99N/A (N/A)20,000 .. 50,0000%00:00 (00:00)
47 Little Racers STREET Feb 6, 2014 $5.99N/A (N/A/62%)100,000 .. 200,0000%00:00 (00:00)
48 Rooms: The Main Building Jul 11, 2014 $9.99N/A (N/A)20,000 .. 50,0000%00:00 (00:00)
49 Unclaimed World Oct 4, 2016 $1.89N/A (N/A)0 .. 20,0000%00:00 (00:00)
50 The Happy Hereafter Oct 2, 2013 $3.99N/A (N/A)20,000 .. 50,0000%00:00 (00:00)
51 Left in the Dark: No One on Board Aug 20, 2013 $2.99N/A (N/A)50,000 .. 100,0000%00:00 (00:00)
52 Lexica Jul 4, 2014 $4.99N/A (N/A)50,000 .. 100,0000%00:00 (00:00)
53 Kitty Powers' Matchmaker Apr 22, 2015 $9.99N/A (N/A)50,000 .. 100,0000%00:00 (00:00)
54 Wildlife Park 2 - Marine World Aug 31, 2007 $3.99N/A (N/A)0 .. 20,0000%00:00 (00:00)
55 Dog Sled Saga Sep 22, 2016 $7.99N/A (N/A)20,000 .. 50,0000%00:00 (00:00)
56 YOU DON'T KNOW JACK Vol. 1 XL Sep 12, 1995 $2.99N/A (N/A)0 .. 20,0000%00:00 (00:00)
57 Parkan 2 May 11, 2007 $3.99N/A (N/A)50,000 .. 100,0000%00:00 (00:00)
58 Pool Nation Oct 18, 2013 $6.99N/A (N/A)200,000 .. 500,0000%00:00 (00:00)
59 The Tomorrow War May 4, 2009 $2.99N/A (N/A)20,000 .. 50,0000%00:00 (00:00)
60 Chicken Shoot Gold Nov 1, 2003 $6.99N/A (N/A)100,000 .. 200,0000%00:00 (00:00)
61 Bus Simulator 16 Mar 2, 2016 $17.99N/A (N/A)200,000 .. 500,0000%00:00 (00:00)
62 Idol Hands Feb 18, 2015 $4.99N/A (N/A)20,000 .. 50,0000%00:00 (00:00)
63 Wild Season Dec 7, 2015 $16.99N/A (N/A)0 .. 20,0000%00:00 (00:00)
64 The Spatials Mar 30, 2015 $9.99N/A (N/A)20,000 .. 50,0000%00:00 (00:00)
65 Luna's Wandering Stars May 15, 2015 $9.99N/A (N/A)50,000 .. 100,0000%00:00 (00:00)
66 Vector 36 Jan 25, 2017 $24.99N/A (N/A)0 .. 20,0000%00:00 (00:00)
67 Demon Hunter: Chronicles from Beyond Dec 4, 2014 $9.99N/A (N/A)50,000 .. 100,0000%00:00 (00:00)
68 Doodle God Sep 24, 2015 $14.99N/A (N/A)100,000 .. 200,0000%00:00 (00:00)
69 Inside The Gear Nov 21, 2014 $1.99N/A (N/A)100,000 .. 200,0000%00:00 (00:00)
70 Night Mysteries: The Amphora Prisoner Feb 26, 2015 $1.99N/A (N/A)100,000 .. 200,0000%00:00 (00:00)
71 Tales of the Orient: The Rising Sun Feb 27, 2015 $9.99N/A (N/A)50,000 .. 100,0000%00:00 (00:00)
72 Wildlife Park 2 - Farm World Nov 19, 2010 $3.99N/A (N/A)0 .. 20,0000%00:00 (00:00)
73 Space Station Alpha Feb 27, 2015 $5.99N/A (N/A)20,000 .. 50,0000%00:00 (00:00)
74 Bridge Constructor Medieval Sep 15, 2014 $9.99N/A (N/A)20,000 .. 50,0000%00:00 (00:00)
75 Air Guardians Jan 26, 2015 $0.99N/A (N/A)50,000 .. 100,0000%00:00 (00:00)
76 Coffin Dodgers Jul 8, 2015 $10.99N/A (N/A)50,000 .. 100,0000%00:00 (00:00)
77 Witch's Pranks: Frog's Fortune Collector's Edition Jan 15, 2015 $6.99N/A (N/A)50,000 .. 100,0000%00:00 (00:00)

Tags over time:

Access restricted.

This feature is only available to users with special access rights. Sorry.

If you want to proceed, you need to register or log in first and then back Steam Spy on Patreon. Look for Indie or Pro pledge.

Don't forget to use the same email as on Steam Spy!

If you've recently backed Steam Spy on Patreon, please note, that it might take around 15 minutes for your access rights to sync. In most cases you'll need to re-login on Steam Spy too.

Owners of this game also own:

Access restricted.

This feature is only available to users with special access rights. Sorry.

If you want to proceed, you need to register or log in first and then back Steam Spy on Patreon. Look for Indie or Pro pledge.

Don't forget to use the same email as on Steam Spy!

If you've recently backed Steam Spy on Patreon, please note, that it might take around 15 minutes for your access rights to sync. In most cases you'll need to re-login on Steam Spy too.

Playtime distribution:

Access restricted.

This feature is only available to users with special access rights. Sorry.

If you want to proceed, you need to register or log in first and then back Steam Spy on Patreon. Look for Indie or Pro pledge.

Don't forget to use the same email as on Steam Spy!

If you've recently backed Steam Spy on Patreon, please note, that it might take around 15 minutes for your access rights to sync. In most cases you'll need to re-login on Steam Spy too.

Playtime (2 weeks):

Access restricted.

This feature is only available to users with special access rights. Sorry.

If you want to proceed, you need to register or log in first and then back Steam Spy on Patreon. Look for Indie or Pro pledge.

Don't forget to use the same email as on Steam Spy!

If you've recently backed Steam Spy on Patreon, please note, that it might take around 15 minutes for your access rights to sync. In most cases you'll need to re-login on Steam Spy too.

User reviews:

Login required.

Please register or log in to see this information.